createdAt,value
2023-04-29T00:02:16.431Z,2.92
2023-04-29T00:04:44.318Z,1.42
2023-04-29T00:07:15.308Z,3.60
2023-04-29T00:09:42.905Z,3.33
2023-04-29T00:12:11.375Z,3.10
2023-04-29T00:14:40.256Z,2.70
2023-04-29T00:17:07.946Z,1.58
2023-04-29T00:19:35.621Z,2.15
2023-04-29T00:22:03.136Z,3.55
2023-04-29T00:24:30.707Z,3.65
2023-04-29T00:26:58.370Z,1.52
2023-04-29T00:29:25.919Z,1.25
2023-04-29T00:31:54.801Z,2.25
2023-04-29T00:34:22.619Z,1.80
2023-04-29T00:36:50.524Z,2.05
2023-04-29T00:39:18.816Z,1.92
2023-04-29T00:41:46.381Z,2.08
2023-04-29T00:44:14.336Z,2.55
2023-04-29T00:46:42.516Z,1.50
2023-04-29T00:49:12.312Z,2.10
2023-04-29T00:51:42.182Z,1.30
2023-04-29T00:54:11.447Z,1.45
2023-04-29T00:56:42.389Z,1.20
2023-04-29T00:59:11.241Z,4.05
2023-04-29T01:01:39.450Z,1.75
2023-04-29T01:04:07.985Z,1.85
2023-04-29T01:06:49.517Z,2.45
2023-04-29T01:09:28.048Z,4.68
2023-04-29T01:12:09.260Z,2.25
2023-04-29T01:14:40.408Z,1.90
2023-04-29T01:17:12.926Z,3.38
2023-04-29T01:19:46.540Z,2.20
2023-04-29T01:22:17.756Z,1.52
2023-04-29T01:24:46.823Z,2.13
2023-04-29T01:27:30.978Z,1.92
2023-04-29T01:30:18.489Z,2.13
2023-04-29T01:32:54.648Z,1.15
2023-04-29T01:35:39.457Z,1.95
2023-04-29T01:38:18.286Z,2.60
2023-04-29T01:40:56.610Z,1.83
2023-04-29T01:43:29.492Z,2.65
2023-04-29T01:46:00.669Z,1.83
2023-04-29T01:48:29.132Z,1.73
2023-04-29T01:50:56.841Z,0.95
2023-04-29T01:53:24.399Z,4.75
2023-04-29T01:55:54.379Z,1.45
2023-04-29T01:58:31.155Z,1.70
2023-04-29T02:01:15.968Z,3.05
2023-04-29T02:03:43.847Z,5.97
2023-04-29T02:06:12.639Z,3.03
2023-04-29T02:08:40.330Z,3.03
2023-04-29T02:11:09.313Z,2.83
2023-04-29T02:13:41.155Z,2.13
2023-04-29T02:16:10.222Z,1.52
2023-04-29T02:18:40.501Z,3.00
2023-04-29T02:21:08.490Z,1.83
2023-04-29T02:23:37.366Z,2.13
2023-04-29T02:26:06.884Z,3.30
2023-04-29T02:28:35.844Z,3.45
2023-04-29T02:31:04.864Z,3.08
2023-04-29T02:33:33.213Z,2.22
2023-04-29T02:36:00.814Z,1.70
2023-04-29T02:38:28.455Z,1.77
2023-04-29T02:40:55.965Z,2.20
2023-04-29T02:43:24.101Z,3.60
2023-04-29T02:45:53.077Z,2.33
2023-04-29T02:48:20.952Z,2.13
2023-04-29T02:50:49.191Z,1.73
2023-04-29T02:53:17.084Z,1.67
2023-04-29T02:55:44.805Z,3.38
2023-04-29T02:58:12.353Z,2.45
2023-04-29T03:00:41.999Z,2.00
2023-04-29T03:03:11.152Z,3.15
2023-04-29T03:05:39.055Z,2.38
2023-04-29T03:08:07.413Z,2.53
2023-04-29T03:10:35.091Z,2.58
2023-04-29T03:13:03.562Z,4.18
2023-04-29T03:15:33.381Z,3.15
2023-04-29T03:18:01.965Z,2.17
2023-04-29T03:20:32.492Z,2.42
2023-04-29T03:23:02.740Z,2.20
2023-04-29T03:25:30.465Z,2.00
2023-04-29T03:27:58.392Z,2.53
2023-04-29T03:30:26.427Z,2.97
2023-04-29T03:32:57.900Z,2.42
2023-04-29T03:35:27.014Z,1.83
2023-04-29T03:38:25.893Z,2.03
2023-04-29T03:40:54.713Z,3.67
2023-04-29T03:43:22.379Z,2.90
2023-04-29T03:45:50.348Z,3.08
2023-04-29T03:48:21.396Z,2.42
2023-04-29T03:50:49.125Z,1.90
2023-04-29T03:53:17.216Z,3.45
2023-04-29T03:55:46.347Z,1.88
2023-04-29T03:58:14.484Z,2.92
2023-04-29T04:00:43.387Z,1.98
2023-04-29T04:03:16.687Z,2.47
2023-04-29T04:05:45.028Z,2.45
2023-04-29T04:08:15.942Z,3.90
2023-04-29T04:10:47.634Z,3.05
2023-04-29T04:13:31.926Z,1.95
2023-04-29T04:15:59.786Z,1.95
2023-04-29T04:18:27.598Z,1.88
2023-04-29T04:20:55.138Z,3.20
2023-04-29T04:23:22.732Z,2.00
2023-04-29T04:25:53.872Z,2.08
2023-04-29T04:28:40.234Z,1.23
2023-04-29T04:31:14.550Z,2.33
2023-04-29T04:33:42.140Z,2.05
2023-04-29T04:36:09.844Z,5.70
2023-04-29T04:38:37.828Z,2.92
2023-04-29T04:41:11.430Z,3.92
2023-04-29T04:43:40.859Z,2.45
2023-04-29T04:46:16.677Z,1.73
2023-04-29T04:48:54.882Z,1.95
2023-04-29T04:51:22.904Z,2.08
2023-04-29T04:53:50.665Z,3.25
2023-04-29T04:56:25.339Z,3.15
2023-04-29T04:58:53.133Z,2.70
2023-04-29T05:01:22.644Z,1.98
2023-04-29T05:03:50.396Z,1.73
2023-04-29T05:06:18.060Z,13.27
2023-04-29T05:08:47.493Z,4.25
2023-04-29T05:11:19.508Z,3.67
2023-04-29T05:14:01.030Z,1.80
2023-04-29T05:16:28.810Z,2.60
2023-04-29T05:18:56.578Z,2.17
2023-04-29T05:21:28.992Z,1.48
2023-04-29T05:23:59.105Z,11.23
2023-04-29T05:26:27.491Z,1.70
2023-04-29T05:29:01.167Z,5.13
2023-04-29T05:31:32.378Z,2.13
2023-04-29T05:34:02.824Z,2.47
2023-04-29T05:36:31.794Z,2.05
2023-04-29T05:38:59.340Z,3.13
2023-04-29T05:41:27.041Z,2.38
2023-04-29T05:43:54.667Z,1.58
2023-04-29T05:46:23.772Z,3.03
2023-04-29T05:48:51.944Z,2.47
2023-04-29T05:51:20.078Z,2.97
2023-04-29T05:53:47.679Z,3.00
2023-04-29T05:56:16.529Z,3.35
2023-04-29T05:58:44.169Z,1.70
2023-04-29T06:01:11.900Z,2.83
2023-04-29T06:03:41.757Z,3.80
2023-04-29T06:06:34.471Z,2.10
2023-04-29T06:09:19.876Z,2.53
2023-04-29T06:11:54.783Z,2.13
2023-04-29T06:14:22.592Z,2.38
2023-04-29T06:16:50.322Z,2.88
2023-04-29T06:19:19.347Z,3.25
2023-04-29T06:21:47.044Z,3.15
2023-04-29T06:24:14.642Z,2.10
2023-04-29T06:26:42.205Z,3.45
2023-04-29T06:29:09.748Z,3.63
2023-04-29T06:31:38.327Z,3.80
2023-04-29T06:34:06.069Z,2.03
2023-04-29T06:36:38.565Z,3.03
2023-04-29T06:39:18.920Z,3.75
2023-04-29T06:42:18.623Z,2.28
2023-04-29T06:45:12.503Z,3.25
2023-04-29T06:47:43.896Z,1.80
2023-04-29T06:50:13.100Z,2.10
2023-04-29T06:52:42.073Z,1.60
2023-04-29T06:55:11.545Z,2.95
2023-04-29T06:57:42.490Z,3.70
2023-04-29T07:00:10.783Z,1.83
2023-04-29T07:02:38.958Z,3.60
2023-04-29T07:05:07.914Z,3.92
2023-04-29T07:07:36.140Z,2.70
2023-04-29T07:10:05.680Z,2.03
2023-04-29T07:12:33.325Z,2.25
2023-04-29T07:15:01.659Z,2.80
2023-04-29T07:17:30.785Z,2.75
2023-04-29T07:19:58.326Z,2.85
2023-04-29T07:22:25.950Z,3.72
2023-04-29T07:24:54.828Z,2.50
2023-04-29T07:27:24.922Z,3.47
2023-04-29T07:29:53.030Z,2.00
2023-04-29T07:32:20.861Z,4.05
2023-04-29T07:34:48.737Z,2.47
2023-04-29T07:37:16.619Z,1.70
2023-04-29T07:39:44.208Z,1.88
2023-04-29T07:42:11.863Z,2.53
2023-04-29T07:44:40.912Z,2.03
2023-04-29T07:47:09.631Z,3.97
2023-04-29T07:49:37.346Z,2.65
2023-04-29T07:52:06.161Z,1.85
2023-04-29T07:54:33.825Z,2.15
2023-04-29T07:57:03.544Z,2.60
2023-04-29T07:59:31.544Z,2.70
2023-04-29T08:02:00.825Z,2.72
2023-04-29T08:04:28.743Z,2.58
2023-04-29T08:07:02.744Z,4.75
2023-04-29T08:09:30.357Z,2.30
2023-04-29T08:11:59.480Z,2.58
2023-04-29T08:14:27.210Z,3.13
2023-04-29T08:16:57.778Z,2.05
2023-04-29T08:19:29.675Z,3.15
2023-04-29T08:21:57.634Z,3.90
2023-04-29T08:24:25.257Z,2.92
2023-04-29T08:26:53.696Z,3.45
2023-04-29T08:29:21.399Z,2.92
2023-04-29T08:31:50.018Z,2.88
2023-04-29T08:34:17.827Z,3.05
2023-04-29T08:36:46.778Z,3.72
2023-04-29T08:39:21.920Z,2.90
2023-04-29T08:41:54.014Z,2.20
2023-04-29T08:44:21.787Z,1.67
2023-04-29T08:46:49.656Z,2.83
2023-04-29T08:49:17.735Z,2.25
2023-04-29T08:51:49.146Z,3.05
2023-04-29T08:54:16.741Z,1.67
2023-04-29T08:56:46.974Z,1.40
2023-04-29T08:59:16.128Z,1.70
2023-04-29T09:01:50.713Z,2.40
2023-04-29T09:04:35.032Z,2.78
2023-04-29T09:07:06.591Z,1.83
2023-04-29T09:09:35.002Z,3.00
2023-04-29T09:12:02.825Z,2.35
2023-04-29T09:14:33.342Z,3.10
2023-04-29T09:17:01.082Z,3.55
2023-04-29T09:19:33.074Z,1.73
2023-04-29T09:22:01.148Z,2.58
2023-04-29T09:24:31.594Z,1.75
2023-04-29T09:26:59.684Z,2.40
2023-04-29T09:29:27.444Z,2.13
2023-04-29T09:31:56.072Z,3.40
2023-04-29T09:34:32.656Z,2.20
2023-04-29T09:37:00.681Z,3.28
2023-04-29T09:39:38.752Z,1.98
2023-04-29T09:42:06.830Z,2.55
2023-04-29T09:44:35.766Z,2.90
2023-04-29T09:47:05.443Z,3.00
2023-04-29T09:49:35.755Z,3.05
2023-04-29T09:52:06.013Z,2.22
2023-04-29T09:54:37.617Z,2.85
2023-04-29T09:57:06.941Z,2.97
2023-04-29T09:59:36.423Z,3.05
2023-04-29T10:02:11.529Z,3.85
2023-04-29T10:04:45.452Z,2.30
2023-04-29T10:07:16.538Z,2.58
2023-04-29T10:09:47.009Z,1.98
2023-04-29T10:12:17.387Z,3.53
2023-04-29T10:24:10.148Z,2.72
2023-04-29T10:26:40.871Z,2.97
2023-04-29T10:29:10.074Z,8.20
2023-04-29T10:31:39.135Z,3.10
2023-04-29T10:34:06.807Z,4.35
2023-04-29T10:36:35.768Z,4.20
2023-04-29T10:39:06.019Z,9.48
2023-04-29T10:41:45.823Z,10.15
2023-04-29T10:44:13.736Z,13.02
2023-04-29T10:46:41.383Z,7.05
2023-04-29T10:49:09.297Z,7.40
2023-04-29T10:51:41.970Z,7.95
2023-04-29T10:54:11.514Z,7.00
2023-04-29T10:56:42.826Z,8.65
2023-04-29T10:59:15.086Z,8.00
2023-04-29T11:01:45.046Z,9.10
2023-04-29T11:04:12.776Z,8.23
2023-04-29T11:06:43.545Z,7.85
2023-04-29T11:09:14.415Z,8.13
2023-04-29T11:11:58.104Z,8.15
2023-04-29T11:16:57.243Z,8.77
2023-04-29T11:19:27.031Z,9.23
2023-04-29T11:22:15.808Z,8.38
2023-04-29T11:24:51.689Z,8.65
2023-04-29T11:27:25.134Z,7.07
2023-04-29T11:29:55.699Z,7.72
2023-04-29T11:32:23.933Z,6.43
2023-04-29T11:34:51.672Z,8.30
2023-04-29T11:37:24.269Z,7.93
2023-04-29T11:39:53.060Z,6.70
2023-04-29T11:42:22.859Z,8.82
2023-04-29T11:44:54.675Z,7.00
2023-04-29T11:47:22.934Z,6.10
2023-04-29T11:49:50.564Z,7.90
2023-04-29T11:52:18.475Z,7.95
2023-04-29T11:54:48.433Z,7.68
2023-04-29T11:57:16.112Z,6.82
2023-04-29T11:59:45.186Z,7.78
2023-04-29T12:02:13.409Z,7.78
2023-04-29T12:04:46.801Z,6.95
2023-04-29T12:07:16.677Z,7.20
2023-04-29T12:09:45.164Z,8.63
2023-04-29T12:12:13.539Z,6.07
2023-04-29T12:14:42.218Z,7.38
2023-04-29T12:17:11.942Z,9.32
2023-04-29T12:19:41.505Z,6.82
2023-04-29T12:22:09.323Z,6.50
2023-04-29T12:24:38.236Z,5.68
2023-04-29T12:27:09.443Z,6.20
2023-04-29T12:29:37.289Z,6.43
2023-04-29T12:32:04.883Z,9.88
2023-04-29T12:34:34.624Z,6.82
2023-04-29T12:37:03.440Z,5.78
2023-04-29T12:39:33.149Z,5.63
2023-04-29T12:42:02.869Z,4.68
2023-04-29T12:44:37.402Z,6.40
2023-04-29T12:47:10.787Z,5.40
2023-04-29T12:52:10.467Z,4.90
2023-04-29T12:54:38.252Z,4.95
2023-04-29T12:57:05.973Z,4.80
2023-04-29T12:59:33.918Z,6.50
2023-04-29T13:02:01.791Z,4.88
2023-04-29T13:04:29.625Z,5.05
2023-04-29T13:07:00.716Z,4.43
2023-04-29T13:09:28.497Z,5.22
2023-04-29T13:11:56.045Z,4.50
2023-04-29T13:14:23.613Z,5.97
2023-04-29T13:16:51.279Z,6.78
2023-04-29T13:19:36.362Z,4.75
2023-04-29T13:22:07.924Z,5.05
2023-04-29T13:24:36.745Z,4.10
2023-04-29T13:27:05.732Z,4.53
2023-04-29T13:29:33.972Z,4.03
2023-04-29T13:32:05.058Z,4.63
2023-04-29T13:34:32.734Z,5.05
2023-04-29T13:37:00.291Z,4.72
2023-04-29T13:39:32.434Z,4.30
2023-04-29T13:42:03.911Z,2.97
2023-04-29T13:44:42.370Z,4.28
2023-04-29T13:47:24.042Z,3.63
2023-04-29T13:50:33.958Z,6.22
2023-04-29T13:53:23.731Z,3.53
2023-04-29T13:56:15.405Z,5.65
2023-04-29T14:01:16.543Z,6.30
2023-04-29T14:03:35.958Z,4.63
2023-04-29T14:06:04.171Z,4.70
2023-04-29T14:08:31.917Z,6.10
2023-04-29T14:11:01.212Z,6.47
2023-04-29T14:13:29.393Z,4.57
2023-04-29T14:15:58.741Z,4.45
2023-04-29T14:18:27.380Z,7.20
2023-04-29T14:20:55.197Z,5.55
2023-04-29T14:23:22.924Z,4.35
2023-04-29T14:25:50.532Z,5.68
2023-04-29T14:28:19.509Z,5.28
2023-04-29T14:30:47.242Z,5.18
2023-04-29T14:33:14.824Z,5.07
2023-04-29T14:35:42.461Z,3.72
2023-04-29T14:38:10.143Z,4.00
2023-04-29T14:40:39.040Z,3.72
2023-04-29T14:43:06.757Z,3.72
2023-04-29T14:45:37.529Z,4.35
2023-04-29T14:48:05.702Z,4.32
2023-04-29T14:50:33.353Z,4.72
2023-04-29T14:53:01.385Z,3.35
2023-04-29T14:55:30.765Z,2.92
2023-04-29T14:57:58.891Z,3.30
2023-04-29T15:00:26.658Z,3.72
2023-04-29T15:02:57.037Z,3.75
2023-04-29T15:05:25.025Z,6.82
2023-04-29T15:07:52.695Z,3.50
2023-04-29T15:10:20.402Z,3.70
2023-04-29T15:12:48.247Z,4.03
2023-04-29T15:15:15.956Z,3.58
2023-04-29T15:17:43.816Z,3.72
2023-04-29T15:20:13.424Z,5.22
2023-04-29T15:22:40.957Z,3.92
2023-04-29T15:25:09.600Z,4.00
2023-04-29T15:27:37.313Z,3.53
2023-04-29T15:30:06.551Z,4.30
2023-04-29T15:32:34.316Z,4.38
2023-04-29T15:35:02.837Z,4.88
2023-04-29T15:37:31.763Z,3.90
2023-04-29T15:40:00.194Z,6.95
2023-04-29T15:42:27.947Z,4.95
2023-04-29T15:44:56.002Z,4.57
2023-04-29T15:47:23.616Z,4.32
2023-04-29T15:49:52.079Z,3.33
2023-04-29T15:52:20.076Z,3.42
2023-04-29T15:54:48.959Z,4.50
2023-04-29T15:57:16.494Z,4.43
2023-04-29T15:59:44.176Z,4.30
2023-04-29T16:02:12.027Z,5.53
2023-04-29T16:04:39.945Z,4.53
2023-04-29T16:07:07.630Z,4.05
2023-04-29T16:09:36.457Z,4.07
2023-04-29T16:12:05.801Z,4.22
2023-04-29T16:14:33.415Z,3.92
2023-04-29T16:17:01.694Z,4.18
2023-04-29T16:19:29.306Z,4.45
2023-04-29T16:21:56.991Z,5.13
2023-04-29T16:24:24.628Z,4.40
2023-04-29T16:26:52.307Z,4.15
2023-04-29T16:29:21.406Z,4.65
2023-04-29T16:31:49.321Z,5.13
2023-04-29T16:34:16.974Z,4.47
2023-04-29T16:37:12.621Z,4.22
2023-04-29T16:39:40.667Z,4.95
2023-04-29T16:42:08.515Z,5.10
2023-04-29T16:44:37.612Z,4.10
2023-04-29T16:47:05.522Z,4.13
2023-04-29T16:49:33.130Z,4.00
2023-04-29T16:52:00.688Z,3.33
2023-04-29T16:54:28.568Z,3.80
2023-04-29T16:56:56.246Z,5.32
2023-04-29T16:59:23.921Z,4.55
2023-04-29T17:01:55.092Z,5.55
2023-04-29T17:04:23.542Z,5.50
2023-04-29T17:06:51.453Z,4.45
2023-04-29T17:09:18.992Z,4.25
2023-04-29T17:11:46.699Z,5.00
2023-04-29T17:14:14.354Z,3.88
2023-04-29T17:16:42.114Z,4.55
2023-04-29T17:19:11.146Z,4.97
2023-04-29T17:21:38.831Z,5.35
2023-04-29T17:24:06.980Z,5.18
2023-04-29T17:26:34.576Z,4.00
2023-04-29T17:29:02.147Z,3.35
2023-04-29T17:31:44.761Z,3.35
2023-04-29T17:34:19.650Z,5.60
2023-04-29T17:36:47.707Z,3.55
2023-04-29T17:39:15.437Z,4.20
2023-04-29T17:41:43.235Z,4.13
2023-04-29T17:44:11.133Z,3.58
2023-04-29T17:46:39.268Z,3.22
2023-04-29T17:49:06.947Z,3.65
2023-04-29T17:51:35.980Z,3.55
2023-04-29T17:54:05.487Z,4.35
2023-04-29T17:56:34.832Z,3.40
2023-04-29T17:59:02.504Z,3.35
2023-04-29T18:01:30.262Z,4.30
2023-04-29T18:03:57.909Z,2.85
2023-04-29T18:06:25.996Z,3.85
2023-04-29T18:08:54.981Z,2.38
2023-04-29T18:11:22.681Z,1.95
2023-04-29T18:13:50.214Z,3.97
2023-04-29T18:16:17.764Z,13.65
2023-04-29T18:18:45.363Z,4.97
2023-04-29T18:21:13.007Z,3.53
2023-04-29T18:23:40.637Z,3.95
2023-04-29T18:26:09.603Z,5.50
2023-04-29T18:28:37.160Z,4.63
2023-04-29T18:31:04.690Z,3.50
2023-04-29T18:33:32.252Z,2.83
2023-04-29T18:35:59.864Z,3.88
2023-04-29T18:38:27.554Z,4.05
2023-04-29T18:40:55.108Z,3.90
2023-04-29T18:43:28.125Z,4.50
2023-04-29T18:45:55.885Z,3.35
2023-04-29T18:48:23.823Z,3.97
2023-04-29T18:50:52.199Z,3.30
2023-04-29T18:53:19.840Z,3.33
2023-04-29T18:55:47.822Z,3.33
2023-04-29T18:58:15.431Z,3.60
2023-04-29T19:00:44.379Z,3.70
2023-04-29T19:03:12.574Z,3.13
2023-04-29T19:05:40.232Z,2.92
2023-04-29T19:08:08.207Z,4.25
2023-04-29T19:10:36.022Z,4.45
2023-04-29T19:13:03.607Z,3.35
2023-04-29T19:15:32.060Z,3.55
2023-04-29T19:18:01.221Z,3.60
2023-04-29T19:20:30.037Z,3.78
2023-04-29T19:22:57.770Z,3.10
2023-04-29T19:25:26.401Z,5.53
2023-04-29T19:27:54.641Z,3.25
2023-04-29T19:30:22.223Z,4.57
2023-04-29T19:32:50.212Z,4.22
2023-04-29T19:35:19.261Z,3.55
2023-04-29T19:37:47.073Z,5.18
2023-04-29T19:40:14.801Z,3.00
2023-04-29T19:42:42.424Z,3.08
2023-04-29T19:45:12.441Z,5.43
2023-04-29T19:47:40.052Z,5.57
2023-04-29T19:50:08.088Z,3.10
2023-04-29T19:52:37.159Z,2.83
2023-04-29T19:55:06.263Z,5.65
2023-04-29T19:57:35.234Z,3.25
2023-04-29T20:00:04.478Z,3.50
2023-04-29T20:02:34.669Z,4.00
2023-04-29T20:05:02.895Z,4.30
2023-04-29T20:07:30.437Z,3.17
2023-04-29T20:09:59.339Z,4.10
2023-04-29T20:12:26.990Z,3.58
2023-04-29T20:14:54.648Z,3.90
2023-04-29T20:17:22.252Z,3.67
2023-04-29T20:19:49.969Z,5.28
2023-04-29T20:22:17.557Z,5.22
2023-04-29T20:24:45.730Z,5.32
2023-04-29T20:27:14.635Z,5.25
2023-04-29T20:29:43.553Z,5.28
2023-04-29T20:32:11.444Z,6.18
2023-04-29T20:34:39.084Z,4.07
2023-04-29T20:37:07.777Z,4.22
2023-04-29T20:39:35.412Z,4.97
2023-04-29T20:42:03.354Z,6.25
2023-04-29T20:44:32.586Z,5.18
2023-04-29T20:47:00.124Z,3.40
2023-04-29T20:49:27.707Z,3.90
2023-04-29T20:51:56.046Z,4.43
2023-04-29T20:54:23.634Z,5.40
2023-04-29T20:56:51.210Z,4.47
2023-04-29T20:59:18.779Z,4.13
2023-04-29T21:01:47.735Z,3.67
2023-04-29T21:04:16.356Z,3.15
2023-04-29T21:06:43.980Z,4.47
2023-04-29T21:09:11.603Z,5.18
2023-04-29T21:11:39.163Z,3.80
2023-04-29T21:14:06.740Z,4.05
2023-04-29T21:16:34.314Z,4.15
2023-04-29T21:19:03.284Z,6.85
2023-04-29T21:21:31.706Z,5.95
2023-04-29T21:23:59.296Z,6.22
2023-04-29T21:26:26.866Z,4.05
2023-04-29T21:28:54.402Z,4.05
2023-04-29T21:31:21.966Z,4.18
2023-04-29T21:33:49.572Z,5.63
2023-04-29T21:36:18.645Z,3.95
2023-04-29T21:38:46.289Z,4.75
2023-04-29T21:41:20.807Z,3.60
2023-04-29T21:43:49.227Z,5.65
2023-04-29T21:46:16.988Z,5.55
2023-04-29T21:48:45.260Z,3.95
2023-04-29T21:51:12.904Z,4.43
2023-04-29T21:53:42.653Z,3.60
2023-04-29T21:56:10.135Z,4.45
2023-04-29T21:58:37.734Z,4.10
2023-04-29T22:01:25.505Z,6.25
2023-04-29T22:03:53.520Z,5.43
2023-04-29T22:06:21.169Z,5.50
2023-04-29T22:08:50.684Z,4.82
2023-04-29T22:11:21.697Z,4.75
2023-04-29T22:13:49.509Z,5.25
2023-04-29T22:16:18.552Z,7.35
2023-04-29T22:18:46.238Z,4.95
2023-04-29T22:21:13.808Z,5.45
2023-04-29T22:23:41.331Z,6.72
2023-04-29T22:26:10.192Z,8.55
2023-04-29T22:28:37.796Z,6.18
2023-04-29T22:31:05.818Z,6.88
2023-04-29T22:33:34.551Z,7.47
2023-04-29T22:36:02.196Z,6.03
2023-04-29T22:38:30.199Z,7.43
2023-04-29T22:40:57.773Z,6.18
2023-04-29T22:43:26.684Z,5.30
2023-04-29T22:45:54.698Z,5.18
2023-04-29T22:48:24.546Z,6.30
2023-04-29T22:50:54.220Z,6.25
2023-04-29T22:53:22.847Z,6.78
2023-04-29T22:55:51.647Z,5.10
2023-04-29T22:58:19.457Z,5.10
2023-04-29T23:00:51.937Z,5.57
2023-04-29T23:03:19.623Z,11.60
2023-04-29T23:05:47.783Z,7.05
2023-04-29T23:08:15.419Z,6.03
2023-04-29T23:10:47.635Z,7.78
2023-04-29T23:13:15.173Z,7.50
2023-04-29T23:15:42.746Z,8.30
2023-04-29T23:18:11.983Z,10.63
2023-04-29T23:20:39.705Z,12.60
2023-04-29T23:23:07.630Z,9.05
2023-04-29T23:25:35.763Z,8.65
2023-04-29T23:28:03.265Z,7.50
2023-04-29T23:30:30.835Z,7.95
2023-04-29T23:32:58.770Z,8.00
2023-04-29T23:35:28.182Z,7.68
2023-04-29T23:37:56.172Z,6.57
2023-04-29T23:40:23.820Z,17.83
2023-04-29T23:42:51.442Z,17.10
2023-04-29T23:45:19.058Z,8.10
2023-04-29T23:47:46.716Z,7.32
2023-04-29T23:50:14.309Z,7.32
2023-04-29T23:52:43.231Z,5.50
2023-04-29T23:55:11.290Z,7.18
2023-04-29T23:57:39.029Z,5.97
